Portada
METAR-TAF:

METAR-TAF

Aeropuertos :

Wallis, Francia

Aeropuerto de Hihifo

latitud: 13-14S, longitud: 176-10W, altitud: 23 m

Observación

El informe se hizo hace 1 hora y 16 minutos, a las 14:00 UTC
Viento calma
Temperatura 24°C
Humedad 94%
Presión 1006 hPa
Visibilidad 10 km o más

METAR: NLWW 111400Z AUTO 00000KT 9999 NCD 24/23 Q1006 NOSIG

Hora: 03:16 (15:16 UTC)

Pronóstico

El informe se hizo hace 4 horas y 16 minutos, a las 11:00 UTC
Pronóstico válido del 11 a las 12 UTC al 12 a las 12 UTC
Viento 5 kt del sur-sureste
Visibilidad 10 km o más
Nubes dispersas a una altura de 3000 ft
Temporalmente
del 12 a las 03 UTC al 12 a las 06 UTC
Nubes dispersas a una altura de 3000 ft, Cumulus congestus.
chaparrones de lluvia

TAF: NLWW 111100Z 1112/1212 16005KT 9999 SCT030 TEMPO 1203/1206 SHRA SCT030TCU

Observaciones y pronósticos meteorológicos de más de 4000 aeropuertos (mensajes METAR y TAF).

Los puntos amarillos y rojos representan las estaciones disponibles.

Ponga el ratón en el punto deseado para ver el nombre de la estación.

Haga clic para ver las observaciones y los pronósticos meteorológicos.

Para cambiar el mapa : haga clic en los botones verdes con una cruz de color negro para hacer un zoom, en el botón verde con un guión para alejar o en las flechas verdes para mapas adyacentes.


METAR-TAF: